Time;durP1;ratioP1;P1;durP2;ratioP2;P2;SDS_P1;SDS_P2;PMS_P1;PMS_P2;Temp;Humidity;BMP_temperature;BMP_pressure;BME280_temperature;BME280_humidity;BME280_pressure;Samples;Min_cycle;Max_cycle;Signal;HPM_P1;HPM_P2
2022/12/10 00:01:35;;;;;;;16.45;4.57;;;;;;;8.11;100.00;94005.41;5144995;27;20650;-75
2022/12/10 00:04:02;;;;;;;12.63;3.60;;;;;;;8.07;100.00;94015.25;5144776;27;20209;-75
2022/12/10 00:06:31;;;;;;;18.85;8.10;;;;;;;8.02;99.83;94007.38;5130319;27;20648;-76
2022/12/10 00:08:59;;;;;;;11.13;4.55;;;;;;;8.03;100.00;94013.56;5130793;27;20656;-75
2022/12/10 00:11:25;;;;;;;7.18;4.68;;;;;;;7.91;100.00;94000.00;5131191;27;20659;-75
2022/12/10 00:13:54;;;;;;;11.25;3.78;;;;;;;7.85;100.00;93997.47;5134126;27;20700;-75
2022/12/10 00:16:24;;;;;;;11.60;4.80;;;;;;;7.93;100.00;94003.13;5138174;27;20205;-75
2022/12/10 00:18:52;;;;;;;10.60;5.18;;;;;;;8.01;100.00;93999.59;5147430;27;20212;-75
2022/12/10 00:21:20;;;;;;;9.52;4.38;;;;;;;8.13;100.00;93991.59;5148692;27;20276;-75
2022/12/10 00:23:47;;;;;;;10.63;5.18;;;;;;;7.98;100.00;93992.97;5135944;27;20201;-75
2022/12/10 00:26:16;;;;;;;6.40;3.00;;;;;;;7.94;100.00;93978.53;5135015;27;20212;-74
2022/12/10 00:28:44;;;;;;;10.35;3.92;;;;;;;8.00;100.00;93979.16;5130300;27;20253;-74
2022/12/10 00:31:12;;;;;;;6.85;3.95;;;;;;;7.94;100.00;93983.13;5134612;27;20196;-75
2022/12/10 00:33:41;;;;;;;4.03;2.88;;;;;;;7.94;100.00;93999.31;5139781;27;20706;-75
2022/12/10 00:36:10;;;;;;;8.50;3.53;;;;;;;7.93;100.00;94008.53;5143849;27;20737;-75
2022/12/10 00:38:37;;;;;;;7.75;3.10;;;;;;;7.89;100.00;93992.22;5130880;27;20606;-75
2022/12/10 00:41:05;;;;;;;9.98;3.28;;;;;;;8.02;100.00;94007.38;5137322;27;20201;-75
2022/12/10 00:43:31;;;;;;;6.15;3.67;;;;;;;8.09;100.00;94006.84;5144388;27;20874;-74
2022/12/10 00:45:59;;;;;;;7.10;3.83;;;;;;;8.14;100.00;94001.28;5132881;27;20209;-75
2022/12/10 00:48:26;;;;;;;8.82;4.18;;;;;;;7.96;100.00;93997.88;5133276;27;20243;-74
2022/12/10 00:50:58;;;;;;;8.45;4.07;;;;;;;7.88;100.00;93992.53;5137443;27;20597;-75
2022/12/10 00:53:26;;;;;;;9.38;4.35;;;;;;;7.87;100.00;93999.06;5133617;27;20444;-74
2022/12/10 00:55:53;;;;;;;7.03;3.85;;;;;;;7.95;100.00;93996.28;5147354;27;20196;-74
2022/12/10 00:58:20;;;;;;;7.15;2.72;;;;;;;8.03;100.00;94018.97;5138060;27;20201;-76
2022/12/10 01:00:48;;;;;;;8.73;4.10;;;;;;;8.02;100.00;94011.97;5133904;27;20201;-75
2022/12/10 01:03:15;;;;;;;9.23;3.83;;;;;;;7.97;100.00;94002.16;5133387;27;20257;-75
2022/12/10 01:05:42;;;;;;;10.13;3.97;;;;;;;8.06;100.00;94012.91;5139993;27;20196;-75
2022/12/10 01:08:10;;;;;;;7.53;3.88;;;;;;;8.20;100.00;93998.03;5142425;27;20201;-76
2022/12/10 01:10:37;;;;;;;5.93;3.95;;;;;;;8.38;100.00;94004.16;5151830;27;20245;-76
2022/12/10 01:13:04;;;;;;;7.93;3.97;;;;;;;8.39;100.00;94000.31;5153611;27;20252;-75
2022/12/10 01:15:31;;;;;;;12.40;3.67;;;;;;;8.37;99.93;93997.16;5138747;27;20197;-75
2022/12/10 01:17:58;;;;;;;4.82;2.80;;;;;;;8.42;99.26;93983.47;5143769;27;20260;-75
2022/12/10 01:20:24;;;;;;;8.45;4.15;;;;;;;8.27;99.45;93989.44;5140951;27;20581;-75
2022/12/10 01:22:51;;;;;;;13.40;5.40;;;;;;;8.26;100.00;93990.56;5140004;27;20205;-75
2022/12/10 01:25:19;;;;;;;4.95;2.88;;;;;;;8.25;100.00;93967.38;5145712;27;20272;-76
2022/12/10 01:27:46;;;;;;;10.27;4.00;;;;;;;8.05;100.00;93974.38;5147381;27;20277;-75
2022/12/10 01:30:13;;;;;;;6.45;3.55;;;;;;;8.11;100.00;93964.16;5145544;27;20242;-75
2022/12/10 01:32:40;;;;;;;8.40;3.72;;;;;;;8.23;100.00;93971.53;5142113;27;20216;-75
2022/12/10 01:35:07;;;;;;;11.90;5.97;;;;;;;8.37;100.00;93967.47;5133216;27;20233;-75
2022/12/10 01:37:34;;;;;;;12.63;4.10;;;;;;;8.29;100.00;93968.31;5134198;27;20201;-76
2022/12/10 01:40:00;;;;;;;9.63;4.25;;;;;;;8.18;100.00;93972.53;5144173;27;20257;-75
2022/12/10 01:42:28;;;;;;;10.57;4.20;;;;;;;8.08;100.00;93972.91;5134798;27;20216;-74
2022/12/10 01:45:08;;;;;;;7.93;3.95;;;;;;;7.91;100.00;93973.03;5150428;27;20241;-75
2022/12/10 01:47:35;;;;;;;5.28;2.97;;;;;;;7.97;100.00;93977.09;5138597;27;20230;-76
2022/12/10 01:50:03;;;;;;;12.27;3.83;;;;;;;8.03;100.00;93970.41;5133129;27;20805;-74
2022/12/10 01:52:31;;;;;;;8.35;2.88;;;;;;;8.05;100.00;93954.69;5136197;27;20200;-74
2022/12/10 01:54:57;;;;;;;4.95;3.42;;;;;;;8.12;100.00;93949.56;5133481;27;20197;-74
2022/12/10 01:57:27;;;;;;;7.35;3.92;;;;;;;8.21;100.00;93961.06;5143881;27;20308;-76
2022/12/10 01:59:58;;;;;;;4.78;2.67;;;;;;;8.29;100.00;93965.63;5141101;27;20208;-75
2022/12/10 02:02:36;;;;;;;4.57;3.08;;;;;;;8.24;100.00;93968.50;5150754;27;20196;-75
2022/12/10 02:05:14;;;;;;;7.07;4.00;;;;;;;8.29;100.00;93973.72;5149718;27;20204;-74
2022/12/10 02:07:54;;;;;;;8.63;3.80;;;;;;;8.21;100.00;93955.66;5132535;27;20201;-75
2022/12/10 02:10:34;;;;;;;9.55;3.38;;;;;;;8.23;100.00;93969.63;5136778;27;20815;-75
2022/12/10 02:13:08;;;;;;;4.30;2.10;;;;;;;8.42;100.00;93994.28;5139150;27;20231;-75
2022/12/10 02:15:42;;;;;;;3.88;2.20;;;;;;;8.49;99.65;93983.72;5132215;27;20364;-75
2022/12/10 02:18:12;;;;;;;3.35;1.58;;;;;;;8.47;99.31;93975.16;5132345;27;20256;-74
2022/12/10 02:20:42;;;;;;;6.30;2.80;;;;;;;8.49;99.40;93981.03;5132377;27;20217;-75
2022/12/10 02:23:14;;;;;;;7.45;3.88;;;;;;;8.46;99.46;93957.44;5140127;27;20237;-74
2022/12/10 02:25:47;;;;;;;7.88;2.42;;;;;;;8.63;99.92;93961.06;5133560;27;20709;-75
2022/12/10 02:28:23;;;;;;;6.68;3.13;;;;;;;8.59;100.00;93938.56;5150627;27;20200;-76
2022/12/10 02:30:53;;;;;;;4.63;2.75;;;;;;;8.51;99.39;93949.09;5138296;27;20658;-74
2022/12/10 02:33:22;;;;;;;9.98;3.08;;;;;;;8.55;99.77;93954.63;5131847;27;20213;-74
2022/12/10 02:35:52;;;;;;;5.82;3.15;;;;;;;8.59;99.89;93944.78;5133262;27;20284;-74
2022/12/10 02:38:25;;;;;;;15.68;3.42;;;;;;;8.56;99.25;93942.72;5139099;27;20196;-75
2022/12/10 02:40:59;;;;;;;5.68;2.20;;;;;;;8.55;99.48;93939.25;5144942;27;20644;-74
2022/12/10 02:43:30;;;;;;;11.88;4.03;;;;;;;8.60;99.21;93934.75;5137546;27;20230;-74
2022/12/10 02:46:00;;;;;;;25.52;3.92;;;;;;;8.55;99.06;93923.03;5145433;27;20185;-75
2022/12/10 02:48:28;;;;;;;4.22;2.55;;;;;;;8.52;99.68;93920.22;5131799;27;20201;-76
2022/12/10 02:50:55;;;;;;;2.25;1.80;;;;;;;8.57;99.43;93920.00;5138593;27;20238;-76
2022/12/10 02:53:21;;;;;;;9.70;2.38;;;;;;;8.54;99.52;93932.25;5131919;27;20274;-75
2022/12/10 02:56:01;;;;;;;11.38;3.78;;;;;;;8.58;100.00;93943.19;5134628;27;20197;-75
2022/12/10 02:58:32;;;;;;;3.28;2.35;;;;;;;8.53;99.91;93946.09;5138532;27;20647;-76
2022/12/10 03:01:08;;;;;;;12.75;2.88;;;;;;;8.58;100.00;93942.41;5147701;27;20253;-75
2022/12/10 03:03:44;;;;;;;3.72;2.25;;;;;;;8.67;100.00;93941.19;5149908;27;20417;-76
2022/12/10 03:06:17;;;;;;;8.13;2.33;;;;;;;8.69;100.00;93938.16;5137222;27;20197;-75
2022/12/10 03:08:49;;;;;;;12.48;2.40;;;;;;;8.73;100.00;93939.09;5145504;27;20201;-76
2022/12/10 03:11:19;;;;;;;1.20;1.10;;;;;;;8.74;99.38;93921.75;5136422;27;20192;-75
2022/12/10 03:13:53;;;;;;;6.72;2.88;;;;;;;9.06;97.68;93942.53;5131092;27;20265;-76
2022/12/10 03:16:24;;;;;;;7.50;3.63;;;;;;;8.97;97.90;93927.56;5131053;27;20242;-75
2022/12/10 03:18:54;;;;;;;4.88;2.15;;;;;;;8.97;97.54;93928.34;5130671;27;20193;-75
2022/12/10 03:21:21;;;;;;;4.55;2.55;;;;;;;8.92;98.17;93933.94;5131093;27;20220;-76
2022/12/10 03:23:50;;;;;;;7.85;2.53;;;;;;;8.93;99.06;93927.44;5144587;27;20268;-74
2022/12/10 03:26:18;;;;;;;4.38;2.58;;;;;;;8.88;98.91;93947.31;5139326;27;20723;-76
2022/12/10 03:28:49;;;;;;;3.25;2.08;;;;;;;8.91;98.73;93941.25;5132339;27;20197;-76
2022/12/10 03:31:18;;;;;;;4.60;2.25;;;;;;;8.89;98.37;93931.91;5131238;27;20240;-76
2022/12/10 03:33:47;;;;;;;6.15;2.00;;;;;;;8.93;98.12;93922.03;5130572;27;20282;-76
2022/12/10 03:36:15;;;;;;;9.40;2.75;;;;;;;9.04;97.52;93939.38;5130471;27;20289;-74
2022/12/10 03:38:43;;;;;;;0.65;0.65;;;;;;;9.05;97.06;93926.66;5141515;27;20245;-74
2022/12/10 03:41:10;;;;;;;3.05;2.00;;;;;;;9.15;95.99;93918.94;5132218;27;20218;-75
2022/12/10 03:43:37;;;;;;;2.85;2.20;;;;;;;9.20;96.02;93918.69;5138175;27;20197;-75
2022/12/10 03:46:04;;;;;;;3.35;2.38;;;;;;;9.21;96.63;93925.69;5146007;27;20208;-74
2022/12/10 03:48:31;;;;;;;8.43;3.40;;;;;;;9.22;96.65;93923.78;5130531;27;20208;-74
2022/12/10 03:50:59;;;;;;;3.80;1.50;;;;;;;9.34;95.32;93901.38;5130631;27;20259;-75
2022/12/10 03:53:26;;;;;;;3.17;1.98;;;;;;;9.56;94.39;93911.75;5133728;27;20217;-76
2022/12/10 03:55:52;;;;;;;2.33;1.60;;;;;;;9.59;94.09;93894.84;5132899;27;20201;-76
2022/12/10 03:58:19;;;;;;;4.68;3.05;;;;;;;9.65;94.21;93898.09;5136482;27;20193;-76
2022/12/10 04:00:46;;;;;;;3.30;2.22;;;;;;;9.70;94.49;93890.56;5146023;27;20654;-78
2022/12/10 04:03:13;;;;;;;4.20;1.63;;;;;;;9.75;93.92;93884.13;5149316;27;20197;-74
2022/12/10 04:05:39;;;;;;;8.75;3.55;;;;;;;9.77;93.76;93915.09;5130170;27;20253;-75
2022/12/10 04:08:07;;;;;;;3.22;2.35;;;;;;;9.81;93.39;93907.91;5130620;27;20193;-74
2022/12/10 04:10:36;;;;;;;2.30;1.45;;;;;;;9.84;93.42;93896.38;5132710;27;20249;-75
2022/12/10 04:18:31;;;;;;;4.80;2.63;;;;;;;9.67;93.94;93896.66;5130546;27;20245;-74
2022/12/10 04:29:13;;;;;;;1.58;1.13;;;;;;;9.48;96.29;93918.03;5149281;27;20600;-75
2022/12/10 04:31:39;;;;;;;2.88;1.67;;;;;;;9.54;95.86;93916.72;5130535;27;20205;-76
2022/12/10 04:34:06;;;;;;;3.60;1.92;;;;;;;9.48;96.41;93912.63;5132645;27;20220;-75
2022/12/10 04:36:33;;;;;;;2.78;0.88;;;;;;;9.38;97.25;93922.00;5134021;27;20233;-74
2022/12/10 04:39:01;;;;;;;3.70;1.95;;;;;;;9.35;97.96;93928.06;5135305;27;20201;-74
2022/12/10 04:41:28;;;;;;;8.43;2.67;;;;;;;9.42;98.80;93935.63;5139463;27;20998;-74
2022/12/10 04:43:54;;;;;;;6.63;3.35;;;;;;;9.47;99.20;93940.78;5133573;27;20209;-74
2022/12/10 04:46:21;;;;;;;7.90;3.58;;;;;;;9.43;98.71;93937.22;5150914;27;20196;-75
2022/12/10 04:48:48;;;;;;;4.43;2.13;;;;;;;9.40;99.33;93929.75;5147680;27;20204;-75
2022/12/10 04:51:15;;;;;;;4.43;2.10;;;;;;;9.42;99.28;93922.91;5137086;27;20200;-75
2022/12/10 04:53:42;;;;;;;13.05;3.20;;;;;;;9.45;99.11;93933.00;5139029;27;20307;-74
2022/12/10 04:56:10;;;;;;;2.83;2.00;;;;;;;9.47;99.39;93929.97;5133810;27;20208;-75
2022/12/10 04:58:36;;;;;;;4.43;2.30;;;;;;;9.52;99.00;93921.66;5147801;27;20200;-74
2022/12/10 05:01:04;;;;;;;4.30;2.55;;;;;;;9.44;99.33;93917.91;5142765;27;20204;-75
2022/12/10 05:03:32;;;;;;;5.78;1.88;;;;;;;9.50;99.26;93930.09;5140741;27;20204;-74
2022/12/10 05:06:02;;;;;;;10.70;2.83;;;;;;;9.48;100.00;93931.56;5145111;27;20300;-75
2022/12/10 05:08:28;;;;;;;4.38;2.28;;;;;;;9.39;100.00;93923.56;5147999;27;20201;-74
2022/12/10 05:10:55;;;;;;;5.22;2.15;;;;;;;9.43;100.00;93931.81;5143946;27;20200;-76
2022/12/10 05:13:23;;;;;;;6.07;2.72;;;;;;;9.49;100.00;93919.63;5140513;27;20208;-76
2022/12/10 05:15:50;;;;;;;4.43;2.50;;;;;;;9.49;100.00;93923.13;5143851;27;20205;-76
2022/12/10 05:18:17;;;;;;;4.82;2.75;;;;;;;9.46;100.00;93915.69;5147979;27;20229;-76
2022/12/10 05:20:43;;;;;;;2.95;2.28;;;;;;;9.31;100.00;93907.44;5144203;27;20717;-76
2022/12/10 05:23:27;;;;;;;4.55;2.83;;;;;;;9.23;100.00;93885.59;5140486;27;20200;-75
2022/12/10 05:25:59;;;;;;;2.92;2.20;;;;;;;9.19;100.00;93909.00;5141329;27;20201;-75
2022/12/10 05:28:27;;;;;;;10.68;4.97;;;;;;;9.18;100.00;93912.84;5133503;27;20193;-77
2022/12/10 05:30:54;;;;;;;4.45;2.83;;;;;;;9.18;100.00;93923.66;5133355;27;20708;-76
2022/12/10 05:33:21;;;;;;;5.55;2.28;;;;;;;9.10;100.00;93905.63;5140574;27;20256;-76
2022/12/10 05:35:53;;;;;;;11.02;2.90;;;;;;;9.16;100.00;93919.69;5138963;27;20760;-76
2022/12/10 05:38:20;;;;;;;4.50;2.67;;;;;;;9.21;100.00;93924.88;5133379;27;20643;-76
2022/12/10 05:40:47;;;;;;;3.30;2.42;;;;;;;9.25;100.00;93913.09;5146973;27;20659;-76
2022/12/10 05:43:14;;;;;;;3.50;2.25;;;;;;;9.23;100.00;93923.44;5138884;27;20649;-76
2022/12/10 05:45:42;;;;;;;3.63;2.28;;;;;;;9.23;100.00;93920.72;5131864;27;20249;-76
2022/12/10 05:48:10;;;;;;;8.68;2.72;;;;;;;9.21;100.00;93922.97;5141945;27;20200;-75
2022/12/10 05:50:37;;;;;;;4.97;2.83;;;;;;;9.19;100.00;93924.44;5139799;27;20651;-76
2022/12/10 05:53:04;;;;;;;6.53;2.75;;;;;;;9.19;100.00;93930.63;5143508;27;20340;-76
2022/12/10 05:55:32;;;;;;;6.38;3.65;;;;;;;9.22;100.00;93931.88;5146542;27;20285;-76
2022/12/10 05:57:59;;;;;;;11.07;3.05;;;;;;;9.27;100.00;93932.47;5143687;27;20260;-76
2022/12/10 06:00:27;;;;;;;5.88;2.65;;;;;;;9.43;100.00;93934.50;5139898;27;20273;-75
2022/12/10 06:02:55;;;;;;;10.43;2.75;;;;;;;9.49;100.00;93943.94;5153208;27;21096;-75
2022/12/10 06:05:22;;;;;;;5.50;3.08;;;;;;;9.40;100.00;93940.56;5146981;27;20197;-75
2022/12/10 06:07:49;;;;;;;4.63;2.58;;;;;;;9.45;100.00;93940.34;5132592;27;20209;-75
2022/12/10 06:10:16;;;;;;;5.63;3.50;;;;;;;9.49;100.00;93938.53;5137343;27;20352;-74
2022/12/10 06:12:43;;;;;;;3.65;2.33;;;;;;;9.51;100.00;93953.31;5152943;27;20249;-75
2022/12/10 06:15:10;;;;;;;9.68;3.38;;;;;;;9.52;100.00;93954.09;5139001;27;20228;-74
2022/12/10 06:17:37;;;;;;;2.30;1.33;;;;;;;9.55;100.00;93929.88;5140550;27;20245;-74
2022/12/10 06:20:06;;;;;;;5.40;3.35;;;;;;;9.66;100.00;93927.50;5132309;27;20272;-76
2022/12/10 06:22:34;;;;;;;1.38;1.20;;;;;;;9.76;100.00;93928.97;5144623;27;20249;-75
2022/12/10 06:25:01;;;;;;;1.92;1.27;;;;;;;9.88;100.00;93923.53;5138760;27;20287;-75
2022/12/10 06:27:30;;;;;;;3.47;2.28;;;;;;;9.76;100.00;93937.88;5140437;27;20197;-75
2022/12/10 06:29:57;;;;;;;3.70;2.15;;;;;;;9.75;100.00;93930.09;5146295;27;20672;-75
2022/12/10 06:32:24;;;;;;;3.50;2.08;;;;;;;9.70;100.00;93919.53;5145107;27;20257;-75
2022/12/10 06:34:51;;;;;;;9.15;2.92;;;;;;;9.72;100.00;93914.53;5138981;27;20243;-76
2022/12/10 06:37:19;;;;;;;7.72;3.08;;;;;;;9.83;100.00;93905.66;5139070;27;20185;-76
2022/12/10 06:39:45;;;;;;;5.35;2.60;;;;;;;9.78;100.00;93900.47;5145878;27;20193;-76
2022/12/10 06:42:12;;;;;;;4.72;3.05;;;;;;;9.68;100.00;93908.25;5145751;27;20256;-76
2022/12/10 06:44:39;;;;;;;6.20;3.30;;;;;;;9.69;100.00;93913.31;5139235;27;20200;-77
2022/12/10 06:47:06;;;;;;;5.78;2.83;;;;;;;9.49;100.00;93916.91;5138503;27;20281;-77
2022/12/10 06:49:32;;;;;;;6.57;2.80;;;;;;;9.62;100.00;93918.50;5139861;27;20265;-76
2022/12/10 06:51:59;;;;;;;7.47;3.05;;;;;;;9.71;100.00;93929.19;5137330;27;20200;-77
2022/12/10 06:54:27;;;;;;;7.57;3.58;;;;;;;9.76;100.00;93943.28;5131539;27;20228;-76
2022/12/10 06:56:54;;;;;;;9.40;3.22;;;;;;;9.82;100.00;93944.66;5144448;27;20654;-75
2022/12/10 06:59:21;;;;;;;3.40;1.67;;;;;;;9.77;100.00;93944.84;5136625;27;20201;-76
2022/12/10 07:01:48;;;;;;;6.55;3.78;;;;;;;9.76;100.00;93945.97;5131205;27;20608;-78
2022/12/10 07:04:15;;;;;;;2.83;2.28;;;;;;;9.71;100.00;93935.38;5139821;27;20256;-76
2022/12/10 07:06:43;;;;;;;3.72;2.33;;;;;;;9.58;100.00;93936.50;5136606;27;20540;-77
2022/12/10 07:09:10;;;;;;;8.32;2.75;;;;;;;9.53;100.00;93944.88;5140697;27;20246;-78
2022/12/10 07:11:39;;;;;;;5.60;3.03;;;;;;;9.59;100.00;93954.31;5137905;27;20867;-78
2022/12/10 07:14:05;;;;;;;4.93;3.22;;;;;;;9.67;100.00;93945.31;5142148;27;20547;-77
2022/12/10 07:16:33;;;;;;;5.13;3.08;;;;;;;9.57;100.00;93941.13;5145641;27;20196;-76
2022/12/10 07:19:02;;;;;;;5.72;2.80;;;;;;;9.51;100.00;93936.28;5148144;27;20200;-76
2022/12/10 07:21:31;;;;;;;9.95;3.85;;;;;;;9.55;100.00;93932.59;5137708;27;20212;-74
2022/12/10 07:24:01;;;;;;;7.13;3.65;;;;;;;9.60;100.00;93928.84;5152116;27;20227;-74
2022/12/10 07:26:29;;;;;;;11.52;6.90;;;;;;;9.79;100.00;93931.78;5132678;27;20201;-75
2022/12/10 07:28:59;;;;;;;14.45;6.45;;;;;;;9.80;100.00;93916.34;5130802;27;20668;-75
2022/12/10 07:31:26;;;;;;;8.75;3.72;;;;;;;9.80;100.00;93900.13;5144995;27;20205;-74
2022/12/10 07:33:54;;;;;;;6.80;4.05;;;;;;;9.78;100.00;93892.34;5143229;27;20196;-74
2022/12/10 07:36:23;;;;;;;11.30;4.40;;;;;;;9.94;100.00;93905.97;5130788;27;20293;-77
2022/12/10 07:38:50;;;;;;;7.60;3.83;;;;;;;10.14;100.00;93909.63;5143878;27;20287;-75
2022/12/10 07:41:17;;;;;;;9.85;4.22;;;;;;;10.33;100.00;93907.94;5134582;27;20193;-75
2022/12/10 07:43:45;;;;;;;6.78;4.40;;;;;;;10.36;100.00;93913.78;5139537;27;21008;-76
2022/12/10 07:46:16;;;;;;;13.20;6.55;;;;;;;10.25;100.00;93905.38;5130405;27;20201;-75
2022/12/10 07:48:45;;;;;;;5.18;3.58;;;;;;;10.43;100.00;93928.31;5132011;27;20193;-75
2022/12/10 07:51:11;;;;;;;5.82;4.07;;;;;;;10.46;100.00;93916.78;5138647;27;20720;-75
2022/12/10 07:53:39;;;;;;;9.30;4.43;;;;;;;10.51;100.00;93903.03;5136474;27;20262;-75
2022/12/10 07:56:07;;;;;;;11.57;4.43;;;;;;;10.57;100.00;93907.03;5136824;27;20284;-75
2022/12/10 07:58:34;;;;;;;16.58;4.70;;;;;;;10.81;100.00;93894.50;5137181;27;20624;-76
2022/12/10 08:01:07;;;;;;;11.02;4.55;;;;;;;10.58;100.00;93886.94;5135718;27;20200;-75
2022/12/10 08:03:35;;;;;;;8.95;4.57;;;;;;;10.47;100.00;93880.47;5139115;27;20647;-75
2022/12/10 08:06:03;;;;;;;11.43;4.55;;;;;;;10.69;100.00;93877.19;5138652;27;20609;-74
2022/12/10 08:08:29;;;;;;;10.70;4.38;;;;;;;10.75;100.00;93871.53;5142758;27;20273;-75
2022/12/10 08:10:56;;;;;;;10.27;4.03;;;;;;;10.73;100.00;93868.38;5136768;27;20196;-75
2022/12/10 08:13:23;;;;;;;9.95;5.03;;;;;;;10.92;100.00;93879.34;5134194;27;20192;-76
2022/12/10 08:15:50;;;;;;;11.07;5.88;;;;;;;10.96;99.76;93867.44;5135742;27;20281;-75
2022/12/10 08:18:16;;;;;;;19.25;7.70;;;;;;;10.96;99.20;93863.94;5135500;27;20201;-79
2022/12/10 08:20:44;;;;;;;12.48;4.45;;;;;;;11.29;98.67;93872.53;5140644;27;20208;-75
2022/12/10 08:23:11;;;;;;;7.72;4.18;;;;;;;11.38;97.80;93875.84;5142190;27;20272;-77
2022/12/10 08:25:38;;;;;;;7.93;4.47;;;;;;;11.38;96.39;93864.22;5139534;27;20594;-77
2022/12/10 08:28:05;;;;;;;6.47;3.45;;;;;;;10.98;98.51;93867.88;5143296;27;20192;-77
2022/12/10 08:30:32;;;;;;;11.35;4.50;;;;;;;10.91;99.15;93866.94;5142891;27;20696;-75
2022/12/10 08:32:58;;;;;;;14.07;6.80;;;;;;;11.13;99.01;93869.03;5131963;27;20208;-76
2022/12/10 08:35:25;;;;;;;16.70;7.07;;;;;;;11.25;97.32;93860.03;5130587;27;20289;-75
2022/12/10 08:37:53;;;;;;;14.98;7.25;;;;;;;11.23;97.55;93857.66;5135171;27;20669;-75
2022/12/10 08:40:20;;;;;;;5.18;3.53;;;;;;;11.37;97.83;93858.00;5135660;27;20204;-77
2022/12/10 08:42:47;;;;;;;9.20;4.55;;;;;;;11.50;97.89;93857.91;5145598;27;20934;-79
2022/12/10 08:45:13;;;;;;;10.52;2.95;;;;;;;11.29;96.08;93840.00;5142180;27;20664;-78
2022/12/10 08:47:40;;;;;;;10.50;3.75;;;;;;;11.37;95.68;93852.59;5138422;27;20242;-77
2022/12/10 08:50:07;;;;;;;9.00;4.30;;;;;;;11.43;95.93;93842.28;5137146;27;20196;-77
2022/12/10 08:52:34;;;;;;;10.68;6.70;;;;;;;11.28;96.14;93834.94;5132133;27;20647;-77
2022/12/10 08:55:02;;;;;;;11.18;4.35;;;;;;;11.64;97.34;93833.81;5136477;27;20228;-78
2022/12/10 08:57:29;;;;;;;6.43;3.58;;;;;;;11.48;96.23;93846.66;5134201;27;20621;-78
2022/12/10 08:59:56;;;;;;;7.68;3.88;;;;;;;11.46;96.04;93838.88;5139023;27;20655;-77
2022/12/10 09:02:22;;;;;;;9.55;3.95;;;;;;;11.59;98.23;93828.69;5137381;27;20201;-77
2022/12/10 09:04:50;;;;;;;8.73;4.93;;;;;;;12.62;95.51;93831.63;5129390;27;20193;-75
2022/12/10 09:07:17;;;;;;;5.95;3.78;;;;;;;12.62;93.03;93831.63;5128659;27;20242;-75
2022/12/10 09:09:44;;;;;;;7.55;3.83;;;;;;;12.20;91.28;93822.66;5129117;27;20234;-76
2022/12/10 09:12:12;;;;;;;10.55;6.45;;;;;;;11.75;93.80;93802.31;5128630;27;20258;-75
2022/12/10 09:14:40;;;;;;;9.55;5.13;;;;;;;11.33;96.95;93811.06;5142404;27;20196;-75
2022/12/10 09:17:07;;;;;;;5.82;3.33;;;;;;;11.22;98.08;93812.72;5136046;27;20731;-76
2022/12/10 09:19:34;;;;;;;13.75;5.22;;;;;;;11.43;98.30;93830.63;5137346;27;20220;-76
2022/12/10 09:22:01;;;;;;;7.40;3.85;;;;;;;11.53;97.13;93827.38;5141086;27;20570;-74
2022/12/10 09:24:28;;;;;;;10.73;5.18;;;;;;;11.21;98.51;93838.25;5137906;27;20201;-74
2022/12/10 09:26:55;;;;;;;8.75;4.35;;;;;;;11.03;99.39;93826.19;5142603;27;20197;-74
2022/12/10 09:29:23;;;;;;;8.95;4.47;;;;;;;10.95;100.00;93819.00;5141448;27;20215;-73
2022/12/10 09:31:51;;;;;;;8.52;4.45;;;;;;;11.02;100.00;93813.78;5140331;27;20568;-75
2022/12/10 09:34:18;;;;;;;9.02;5.07;;;;;;;11.23;100.00;93819.72;5140510;27;20197;-76
2022/12/10 09:36:45;;;;;;;10.77;5.45;;;;;;;11.38;99.22;93816.19;5140837;27;20304;-76
2022/12/10 09:39:12;;;;;;;13.30;5.38;;;;;;;11.41;97.71;93793.03;5139762;27;20265;-75
2022/12/10 09:41:57;;;;;;;10.70;5.63;;;;;;;11.31;98.10;93788.94;5136063;27;20324;-75
2022/12/10 09:44:38;;;;;;;10.57;5.63;;;;;;;11.38;98.81;93786.38;5139069;27;20195;-75
2022/12/10 09:47:09;;;;;;;15.05;6.72;;;;;;;11.66;98.20;93790.84;5137016;27;20200;-76
2022/12/10 09:49:48;;;;;;;10.60;5.35;;;;;;;11.86;96.30;93789.78;5138836;27;20193;-76
2022/12/10 09:52:18;;;;;;;12.75;5.93;;;;;;;12.09;95.42;93768.94;5135747;27;20563;-75
2022/12/10 09:54:50;;;;;;;11.80;5.38;;;;;;;12.10;94.17;93770.50;5136737;27;20193;-75
2022/12/10 09:57:21;;;;;;;9.07;4.97;;;;;;;11.90;95.16;93760.78;5136685;27;21041;-74
2022/12/10 09:59:52;;;;;;;14.85;5.93;;;;;;;11.83;95.07;93763.34;5140418;27;20192;-75
2022/12/10 10:02:25;;;;;;;13.98;5.78;;;;;;;11.94;95.08;93761.63;5135785;27;20284;-74
2022/12/10 10:04:56;;;;;;;12.85;5.53;;;;;;;12.23;94.79;93773.06;5137319;27;20185;-74
2022/12/10 10:07:25;;;;;;;11.40;5.55;;;;;;;12.42;92.98;93776.56;5135294;27;20550;-74
2022/12/10 10:09:57;;;;;;;12.73;6.47;;;;;;;12.42;92.21;93764.91;5138726;27;20194;-74
2022/12/10 10:12:24;;;;;;;11.48;5.82;;;;;;;12.22;92.26;93768.78;5141824;27;20234;-74
2022/12/10 10:14:52;;;;;;;11.38;5.90;;;;;;;12.13;93.16;93760.88;5135619;27;20193;-74
2022/12/10 10:17:24;;;;;;;9.45;5.60;;;;;;;12.40;92.17;93756.31;5139523;27;20196;-76
2022/12/10 10:19:50;;;;;;;14.25;6.85;;;;;;;12.42;92.35;93764.91;5139856;27;20285;-76
2022/12/10 10:22:17;;;;;;;19.83;11.20;;;;;;;12.37;92.62;93765.97;5138460;27;20644;-76
2022/12/10 10:24:46;;;;;;;13.07;6.90;;;;;;;12.52;91.66;93752.66;5140089;27;20193;-74
2022/12/10 10:27:16;;;;;;;10.38;5.55;;;;;;;12.96;90.89;93744.88;5138949;27;20490;-75
2022/12/10 10:29:44;;;;;;;12.27;5.57;;;;;;;13.20;88.83;93739.06;5141413;27;20197;-75
2022/12/10 10:32:17;;;;;;;14.18;9.23;;;;;;;13.04;88.50;93730.22;5137395;27;20271;-77
2022/12/10 10:34:44;;;;;;;15.90;8.93;;;;;;;13.24;88.22;93726.31;5137487;27;20189;-77
2022/12/10 10:37:17;;;;;;;18.58;9.25;;;;;;;13.61;86.02;93706.59;5137760;27;20261;-78
2022/12/10 10:39:48;;;;;;;20.88;8.77;;;;;;;13.90;86.64;93722.16;5138197;27;20197;-71
2022/12/10 10:42:28;;;;;;;14.68;9.55;;;;;;;14.17;85.18;93710.03;5135072;27;20191;-73
2022/12/10 10:44:57;;;;;;;13.90;7.72;;;;;;;14.32;83.23;93710.19;5136335;27;20655;-74
2022/12/10 10:47:31;;;;;;;16.13;7.65;;;;;;;13.99;83.45;93692.69;5136103;27;20189;-75
2022/12/10 10:49:58;;;;;;;12.27;7.82;;;;;;;14.16;83.76;93703.00;5139012;27;20708;-74
2022/12/10 10:52:29;;;;;;;14.25;8.27;;;;;;;14.46;82.52;93710.34;5136254;27;20197;-75
2022/12/10 10:54:55;;;;;;;11.32;7.55;;;;;;;14.47;81.15;93711.91;5140062;27;20184;-74
2022/12/10 10:57:28;;;;;;;20.15;6.78;;;;;;;14.37;81.29;93696.19;5137940;27;20201;-74
2022/12/10 11:00:01;;;;;;;11.27;6.82;;;;;;;13.95;82.95;93691.06;5139275;27;20244;-74
2022/12/10 11:02:33;;;;;;;14.60;7.78;;;;;;;13.87;83.72;93676.59;5140077;27;20197;-73
2022/12/10 11:05:07;;;;;;;16.42;8.10;;;;;;;14.24;82.73;93671.94;5138605;27;20850;-73
2022/12/10 11:07:36;;;;;;;13.00;8.23;;;;;;;14.50;82.19;93673.78;5137667;27;20570;-73
2022/12/10 11:10:16;;;;;;;16.55;8.93;;;;;;;14.33;82.63;93671.66;5138985;27;20773;-73
2022/12/10 11:12:44;;;;;;;15.23;7.55;;;;;;;14.16;82.94;93653.19;5136797;27;20189;-74
2022/12/10 11:15:35;;;;;;;11.57;6.82;;;;;;;14.07;83.46;93656.22;5136399;27;20196;-75
2022/12/10 11:18:20;;;;;;;11.20;6.55;;;;;;;14.11;83.93;93651.59;5136560;27;20264;-76
2022/12/10 11:20:58;;;;;;;16.38;7.78;;;;;;;14.35;83.41;93636.63;5138266;27;20225;-73
2022/12/10 11:23:28;;;;;;;14.65;6.93;;;;;;;14.42;83.44;93633.22;5140238;27;20254;-74
2022/12/10 11:26:02;;;;;;;10.57;6.97;;;;;;;14.24;83.81;93617.47;5134022;27;20603;-76
2022/12/10 11:28:42;;;;;;;11.57;6.50;;;;;;;14.18;83.95;93612.75;5137899;27;20188;-76
2022/12/10 11:31:28;;;;;;;12.18;6.53;;;;;;;14.61;82.89;93621.34;5136924;27;20185;-75
2022/12/10 11:34:06;;;;;;;11.75;6.50;;;;;;;15.03;81.69;93629.03;5138261;27;20200;-73
2022/12/10 11:36:42;;;;;;;12.07;6.53;;;;;;;15.23;80.22;93625.66;5136649;27;20224;-74
2022/12/10 11:39:24;;;;;;;14.48;6.80;;;;;;;15.24;79.45;93618.25;5136815;27;20193;-72
2022/12/10 11:41:57;;;;;;;11.68;6.35;;;;;;;15.04;80.33;93614.22;5138556;27;20188;-72
2022/12/10 11:44:30;;;;;;;14.88;6.63;;;;;;;14.82;80.75;93611.34;5131270;27;20288;-75
2022/12/10 11:47:17;;;;;;;10.88;6.22;;;;;;;14.94;80.82;93615.72;5139372;27;20180;-74
2022/12/10 11:49:53;;;;;;;8.73;5.10;;;;;;;15.04;79.84;93619.66;5142701;27;20222;-74
2022/12/10 11:52:41;;;;;;;12.38;5.72;;;;;;;14.78;80.83;93607.81;5135576;27;20196;-75
2022/12/10 11:55:22;;;;;;;11.98;5.18;;;;;;;14.57;81.92;93618.56;5136380;27;20192;-71